Time;durP1;ratioP1;P1;durP2;ratioP2;P2;SDS_P1;SDS_P2;PMS_P1;PMS_P2;Temp;Humidity;BMP_temperature;BMP_pressure;BME280_temperature;BME280_humidity;BME280_pressure;Samples;Min_cycle;Max_cycle;Signal;HPM_P1;HPM_P2
2023/10/14 00:00:38;;;;;;;2.17;0.80;;;;;;;17.01;100.00;100074.72;5266939;28;20218;-74
2023/10/14 00:06:06;;;;;;;3.15;0.75;;;;;;;16.96;100.00;100101.72;5261597;28;20048;-74
2023/10/14 00:08:57;;;;;;;4.00;0.65;;;;;;;16.90;100.00;100144.81;5260970;28;20478;-73
2023/10/14 00:11:35;;;;;;;2.58;0.50;;;;;;;16.81;100.00;100086.91;5247962;28;20043;-74
2023/10/14 00:14:14;;;;;;;1.40;0.43;;;;;;;16.79;100.00;100089.75;5250212;28;20045;-72
2023/10/14 00:16:49;;;;;;;2.05;0.40;;;;;;;16.74;100.00;100095.63;5263777;28;20025;-72
2023/10/14 00:19:22;;;;;;;2.08;0.40;;;;;;;16.67;100.00;100088.59;5263514;28;20060;-73
2023/10/14 00:21:54;;;;;;;2.17;0.80;;;;;;;16.70;100.00;100110.19;5265816;28;20036;-73
2023/10/14 00:24:26;;;;;;;0.88;0.35;;;;;;;16.72;100.00;100113.47;5262223;28;20035;-73
2023/10/14 00:26:58;;;;;;;2.88;0.52;;;;;;;16.67;100.00;100097.34;5263091;28;20033;-73
2023/10/14 00:29:30;;;;;;;5.10;0.70;;;;;;;16.77;100.00;100105.81;5267785;28;20029;-73
2023/10/14 00:32:03;;;;;;;1.63;0.52;;;;;;;16.63;100.00;100119.91;5267734;28;20380;-73
2023/10/14 00:34:35;;;;;;;;;;;;;;;17.43;100.00;100139.19;5270899;28;20036;-74
2023/10/14 00:37:09;;;;;;;2.00;0.55;;;;;;;16.66;100.00;100156.53;5268044;28;20392;-73
2023/10/14 00:39:42;;;;;;;1.50;0.50;;;;;;;16.66;100.00;100161.00;5264531;28;20037;-74
2023/10/14 00:42:14;;;;;;;1.92;0.50;;;;;;;16.60;100.00;100172.34;5265456;28;20047;-73
2023/10/14 00:44:46;;;;;;;2.13;0.57;;;;;;;16.56;100.00;100166.59;5264302;28;20044;-74
2023/10/14 00:47:18;;;;;;;3.28;0.60;;;;;;;16.59;100.00;100168.84;5260882;28;20021;-74
2023/10/14 00:49:52;;;;;;;4.32;0.70;;;;;;;16.58;100.00;100161.94;5258991;28;20048;-73
2023/10/14 00:52:29;;;;;;;1.73;0.70;;;;;;;16.51;100.00;100158.38;5266327;28;20280;-74
2023/10/14 00:55:12;;;;;;;1.30;0.65;;;;;;;16.48;100.00;100164.06;5264817;28;20047;-73
2023/10/14 00:57:54;;;;;;;1.48;0.50;;;;;;;16.48;100.00;100164.88;5264536;28;20033;-74
2023/10/14 01:00:37;;;;;;;2.85;0.90;;;;;;;16.47;100.00;100170.34;5266615;28;20146;-74
2023/10/14 01:03:09;;;;;;;;;;;;;;;17.23;100.00;100174.22;5267281;28;20031;-73
2023/10/14 01:05:41;;;;;;;3.63;1.05;;;;;;;16.52;100.00;100179.38;5264685;28;19912;-72
2023/10/14 01:08:13;;;;;;;2.60;1.23;;;;;;;16.47;100.00;100183.56;5266104;28;20028;-74
2023/10/14 01:10:45;;;;;;;2.55;1.20;;;;;;;16.44;100.00;100192.69;5266623;28;20039;-74
2023/10/14 01:13:22;;;;;;;3.38;1.45;;;;;;;16.45;100.00;100194.34;5266585;28;20127;-74
2023/10/14 01:16:08;;;;;;;4.82;1.88;;;;;;;16.44;100.00;100199.78;5262807;28;20033;-73
2023/10/14 01:18:41;;;;;;;2.38;1.60;;;;;;;16.43;100.00;100232.53;5262120;28;20037;-73
2023/10/14 01:21:13;;;;;;;3.95;1.23;;;;;;;16.30;100.00;100241.91;5264143;28;20055;-72
2023/10/14 01:23:51;;;;;;;3.15;0.82;;;;;;;16.13;100.00;100244.91;5266406;28;20032;-73
2023/10/14 01:26:27;;;;;;;2.35;0.80;;;;;;;15.98;100.00;100252.81;5265975;28;20031;-74
2023/10/14 01:28:59;;;;;;;1.65;0.70;;;;;;;15.86;100.00;100259.53;5266396;28;20044;-74
2023/10/14 01:31:50;;;;;;;2.97;0.80;;;;;;;16.04;100.00;100267.97;5265636;28;20043;-74
2023/10/14 01:34:28;;;;;;;3.60;0.80;;;;;;;15.79;100.00;100270.00;5264867;28;20033;-72
2023/10/14 01:37:12;;;;;;;2.20;0.50;;;;;;;15.81;100.00;100283.84;5265228;28;20032;-73
2023/10/14 01:39:49;;;;;;;6.50;1.20;;;;;;;15.69;100.00;100283.44;5263779;28;20040;-73
2023/10/14 01:42:21;;;;;;;3.90;1.10;;;;;;;15.72;100.00;100298.94;5263258;28;20020;-73
2023/10/14 01:44:53;;;;;;;5.53;1.27;;;;;;;15.69;100.00;100307.22;5244453;28;20052;-73
2023/10/14 01:47:25;;;;;;;10.48;1.25;;;;;;;15.70;100.00;100310.69;5245872;28;20025;-73
2023/10/14 01:49:59;;;;;;;4.75;1.23;;;;;;;15.70;100.00;100318.59;5242795;28;20467;-74
2023/10/14 01:52:32;;;;;;;6.07;1.33;;;;;;;15.58;100.00;100329.53;5241755;28;20490;-73
2023/10/14 01:55:05;;;;;;;6.57;1.25;;;;;;;15.54;100.00;100335.34;5240123;28;20037;-73
2023/10/14 01:57:36;;;;;;;5.90;1.77;;;;;;;15.51;100.00;100335.69;5242492;28;20025;-73
2023/10/14 02:00:24;;;;;;;8.27;2.00;;;;;;;15.45;100.00;100349.56;5241146;28;20558;-73
2023/10/14 02:03:00;;;;;;;6.38;1.67;;;;;;;15.43;100.00;100362.97;5245729;28;20042;-73
2023/10/14 02:05:36;;;;;;;8.55;1.98;;;;;;;15.41;100.00;100358.84;5243622;28;20028;-73
2023/10/14 02:08:15;;;;;;;5.03;1.00;;;;;;;15.32;100.00;100366.81;5240925;28;20040;-73
2023/10/14 02:10:53;;;;;;;5.40;1.30;;;;;;;15.39;100.00;100384.59;5244824;28;20402;-73
2023/10/14 02:13:25;;;;;;;5.38;1.58;;;;;;;15.42;100.00;100385.09;5243867;28;20032;-73
2023/10/14 02:16:06;;;;;;;4.60;1.25;;;;;;;15.52;100.00;100401.50;5246481;28;20037;-73
2023/10/14 02:18:38;;;;;;;6.30;1.45;;;;;;;15.39;100.00;100398.63;5239466;28;20036;-73
2023/10/14 02:21:16;;;;;;;8.00;1.63;;;;;;;15.42;100.00;100394.78;5243040;28;20025;-73
2023/10/14 02:23:48;;;;;;;6.90;1.73;;;;;;;15.45;100.00;100402.38;5243352;28;20029;-73
2023/10/14 02:26:28;;;;;;;7.85;1.40;;;;;;;15.43;100.00;100412.31;5242973;28;20542;-73
2023/10/14 02:29:00;;;;;;;5.15;1.35;;;;;;;15.43;100.00;100417.59;5245170;28;20029;-73
2023/10/14 02:31:35;;;;;;;8.98;1.85;;;;;;;15.39;100.00;100430.28;5243853;28;20470;-73
2023/10/14 02:34:07;;;;;;;9.65;2.22;;;;;;;15.36;100.00;100443.84;5243251;28;20028;-72
2023/10/14 02:36:48;;;;;;;6.43;1.30;;;;;;;15.33;100.00;100446.81;5246166;28;20393;-73
2023/10/14 02:39:27;;;;;;;8.18;1.90;;;;;;;15.31;100.00;100452.28;5243496;28;20024;-73
2023/10/14 02:41:59;;;;;;;10.52;2.10;;;;;;;15.15;100.00;100452.28;5238128;28;20048;-73
2023/10/14 02:44:33;;;;;;;10.20;1.80;;;;;;;15.22;100.00;100470.94;5243367;28;20041;-73
2023/10/14 02:47:05;;;;;;;7.03;2.70;;;;;;;15.11;100.00;100472.09;5238180;28;20029;-72
2023/10/14 02:49:39;;;;;;;9.77;2.17;;;;;;;15.12;100.00;100481.69;5239147;28;20059;-73
2023/10/14 02:52:12;;;;;;;9.52;2.40;;;;;;;14.98;100.00;100492.91;5238568;28;20040;-73
2023/10/14 02:54:54;;;;;;;9.43;2.17;;;;;;;14.96;100.00;100495.72;5233378;28;20045;-73
2023/10/14 02:57:26;;;;;;;9.70;2.47;;;;;;;14.84;100.00;100504.97;5239606;28;20037;-72
2023/10/14 02:59:58;;;;;;;9.75;2.17;;;;;;;14.74;100.00;100513.06;5243614;28;20414;-72
2023/10/14 03:02:48;;;;;;;11.77;2.40;;;;;;;14.68;100.00;100528.69;5243026;28;20025;-72
2023/10/14 03:05:35;;;;;;;10.00;2.63;;;;;;;14.67;100.00;100546.34;5240355;28;20033;-72
2023/10/14 03:08:11;;;;;;;7.13;2.00;;;;;;;14.53;100.00;100547.81;5237974;28;20493;-73
2023/10/14 03:10:45;;;;;;;11.15;2.10;;;;;;;14.51;100.00;100551.59;5241495;28;20398;-72
2023/10/14 03:13:19;;;;;;;11.85;2.30;;;;;;;14.44;100.00;100561.13;5244670;28;20017;-72
2023/10/14 03:15:53;;;;;;;9.40;2.50;;;;;;;14.44;100.00;100563.75;5243387;28;20029;-72
2023/10/14 03:18:37;;;;;;;11.15;2.65;;;;;;;14.30;100.00;100579.19;5239746;28;20033;-72
2023/10/14 03:21:09;;;;;;;8.00;1.90;;;;;;;14.29;100.00;100582.81;5236116;28;20047;-72
2023/10/14 03:23:41;;;;;;;9.25;1.63;;;;;;;14.22;100.00;100581.00;5237994;28;20029;-72
2023/10/14 03:26:13;;;;;;;8.60;2.10;;;;;;;14.23;100.00;100588.72;5236801;28;20486;-72
2023/10/14 03:28:50;;;;;;;10.93;2.25;;;;;;;14.16;100.00;100598.25;5235870;28;20033;-72
2023/10/14 03:31:24;;;;;;;9.23;1.85;;;;;;;14.11;100.00;100608.44;5239669;28;20030;-72
2023/10/14 03:33:58;;;;;;;7.25;1.77;;;;;;;14.04;100.00;100610.06;5237351;28;20029;-72
2023/10/14 03:36:31;;;;;;;15.02;3.42;;;;;;;13.98;100.00;100615.94;5240321;28;20037;-72
2023/10/14 03:39:18;;;;;;;8.48;1.90;;;;;;;13.97;100.00;100624.84;5245678;28;20448;-72
2023/10/14 03:41:53;;;;;;;10.70;2.95;;;;;;;13.85;100.00;100621.66;5242972;28;20033;-72
2023/10/14 03:44:27;;;;;;;10.18;2.75;;;;;;;13.82;100.00;100637.75;5246648;28;20522;-72
2023/10/14 03:47:02;;;;;;;9.25;2.38;;;;;;;13.74;100.00;100646.44;5238821;28;20040;-72
2023/10/14 03:49:34;;;;;;;8.68;2.42;;;;;;;13.72;100.00;100651.06;5236197;28;20048;-72
2023/10/14 03:52:10;;;;;;;7.68;1.90;;;;;;;13.66;100.00;100646.41;5238702;28;20390;-72
2023/10/14 03:54:41;;;;;;;8.32;2.00;;;;;;;13.76;100.00;100656.84;5235151;28;20067;-72
2023/10/14 03:57:19;;;;;;;8.30;2.08;;;;;;;13.71;100.00;100665.19;5236745;28;20029;-72
2023/10/14 03:59:53;;;;;;;9.10;1.92;;;;;;;13.56;100.00;100659.66;5239826;28;20497;-72
2023/10/14 04:02:25;;;;;;;5.72;1.55;;;;;;;13.58;100.00;100673.50;5240153;28;20037;-72
2023/10/14 04:05:07;;;;;;;8.65;2.53;;;;;;;13.47;100.00;100672.91;5244855;28;20393;-73
2023/10/14 04:07:41;;;;;;;11.80;2.10;;;;;;;13.46;100.00;100680.00;5244040;28;20601;-73
2023/10/14 04:10:14;;;;;;;9.82;1.95;;;;;;;13.38;100.00;100685.19;5241106;28;20025;-72
2023/10/14 04:12:53;;;;;;;7.18;2.30;;;;;;;13.42;100.00;100696.25;5237668;28;20025;-73
2023/10/14 04:18:00;;;;;;;9.13;1.88;;;;;;;13.21;100.00;100696.50;5240013;28;20053;-72
2023/10/14 04:20:33;;;;;;;9.30;2.13;;;;;;;13.22;100.00;100719.19;5244736;28;20029;-72
2023/10/14 04:23:05;;;;;;;10.43;2.15;;;;;;;13.13;100.00;100721.75;5245735;28;20288;-72
2023/10/14 04:25:42;;;;;;;7.33;2.10;;;;;;;13.17;100.00;100716.19;5247113;28;20029;-72
2023/10/14 04:30:46;;;;;;;8.85;2.08;;;;;;;13.19;100.00;100733.50;5248266;28;20041;-73
2023/10/14 04:33:23;;;;;;;11.38;2.25;;;;;;;13.19;100.00;100730.03;5248166;28;20386;-73
2023/10/14 04:36:36;;;;;;;8.65;2.03;;;;;;;13.12;100.00;100740.34;5246091;28;20045;-73
2023/10/14 04:39:04;;;;;;;10.73;2.15;;;;;;;13.04;100.00;100754.22;5244331;28;20490;-73
2023/10/14 04:41:45;;;;;;;7.18;2.10;;;;;;;13.03;100.00;100756.97;5246042;28;20494;-73
2023/10/14 04:44:21;;;;;;;10.93;2.63;;;;;;;12.99;100.00;100766.16;5244414;28;20044;-73
2023/10/14 04:47:01;;;;;;;10.00;2.00;;;;;;;12.91;100.00;100775.59;5247750;28;20494;-73
2023/10/14 04:49:37;;;;;;;8.75;2.00;;;;;;;12.90;100.00;100775.75;5245576;28;20029;-73
2023/10/14 04:52:09;;;;;;;10.50;2.30;;;;;;;12.85;100.00;100767.50;5246264;28;20024;-73
2023/10/14 04:54:52;;;;;;;10.50;2.30;;;;;;;12.87;100.00;100782.13;5248142;28;20088;-73
2023/10/14 04:57:24;;;;;;;10.52;1.83;;;;;;;12.86;100.00;100788.38;5244909;28;20028;-73
2023/10/14 04:59:56;;;;;;;12.75;2.38;;;;;;;12.86;100.00;100787.53;5243388;28;20033;-73
2023/10/14 05:02:30;;;;;;;9.27;2.53;;;;;;;12.81;100.00;100795.88;5238989;28;20050;-73
2023/10/14 05:05:06;;;;;;;9.35;2.70;;;;;;;12.70;100.00;100793.44;5236777;28;20037;-73
2023/10/14 05:07:38;;;;;;;9.70;2.03;;;;;;;12.72;100.00;100806.41;5242806;28;20390;-73
2023/10/14 05:10:10;;;;;;;11.38;2.28;;;;;;;12.67;100.00;100806.84;5248200;28;20029;-73
2023/10/14 05:12:51;;;;;;;12.27;2.65;;;;;;;12.68;100.00;100816.41;5245011;28;20017;-73
2023/10/14 05:15:27;;;;;;;13.68;2.45;;;;;;;12.61;100.00;100816.16;5242899;28;20407;-73
2023/10/14 05:18:05;;;;;;;11.65;2.40;;;;;;;12.57;100.00;100827.91;5243850;28;20040;-73
2023/10/14 05:20:56;;;;;;;12.80;2.30;;;;;;;12.54;100.00;100833.47;5243390;28;20025;-73
2023/10/14 05:23:31;;;;;;;11.60;2.85;;;;;;;12.52;100.00;100842.47;5232656;28;20053;-74
2023/10/14 05:26:06;;;;;;;13.80;2.78;;;;;;;12.52;100.00;100839.84;5236999;28;20039;-73
2023/10/14 05:28:42;;;;;;;11.32;2.40;;;;;;;12.51;100.00;100846.91;5236464;28;20033;-73
2023/10/14 05:31:14;;;;;;;9.05;1.80;;;;;;;12.46;100.00;100854.34;5239455;28;20036;-73
2023/10/14 05:33:48;;;;;;;10.35;2.22;;;;;;;12.42;100.00;100847.72;5238543;28;20467;-73
2023/10/14 05:36:20;;;;;;;14.07;2.15;;;;;;;12.36;100.00;100851.75;5237859;28;20029;-73
2023/10/14 05:38:52;;;;;;;9.45;2.15;;;;;;;12.38;100.00;100862.13;5239637;28;20398;-73
2023/10/14 05:41:24;;;;;;;13.45;2.10;;;;;;;12.40;100.00;100863.66;5236370;28;20098;-73
2023/10/14 05:43:56;;;;;;;7.95;2.15;;;;;;;12.37;100.00;100868.34;5233099;28;20037;-73
2023/10/14 05:46:28;;;;;;;8.75;1.70;;;;;;;12.38;100.00;100873.44;5234636;28;20303;-73
2023/10/14 05:49:01;;;;;;;11.43;2.58;;;;;;;12.37;100.00;100876.22;5238574;28;20481;-73
2023/10/14 05:51:33;;;;;;;6.53;2.17;;;;;;;12.42;100.00;100892.41;5238048;28;20029;-72
2023/10/14 05:54:05;;;;;;;13.57;2.30;;;;;;;12.45;100.00;100891.28;5236817;28;20383;-73
2023/10/14 05:56:39;;;;;;;12.98;2.70;;;;;;;12.41;100.00;100896.00;5242351;28;20025;-73
2023/10/14 05:59:11;;;;;;;9.43;2.15;;;;;;;12.41;100.00;100893.38;5246719;28;20029;-72
2023/10/14 06:01:46;;;;;;;12.43;1.92;;;;;;;12.51;100.00;100902.06;5242138;28;20040;-73
2023/10/14 06:04:17;;;;;;;8.18;2.30;;;;;;;12.49;100.00;100909.25;5244403;28;20028;-73
2023/10/14 06:06:49;;;;;;;6.90;1.88;;;;;;;12.49;100.00;100917.13;5246696;28;20025;-72
2023/10/14 06:09:21;;;;;;;9.55;2.08;;;;;;;12.47;100.00;100926.97;5243430;28;20027;-73
2023/10/14 06:11:53;;;;;;;12.25;2.30;;;;;;;12.42;100.00;100921.28;5243104;28;20397;-73
2023/10/14 06:14:25;;;;;;;9.05;2.03;;;;;;;12.37;100.00;100931.41;5239447;28;20040;-73
2023/10/14 06:16:57;;;;;;;15.23;2.80;;;;;;;12.41;100.00;100940.66;5245211;28;20341;-73
2023/10/14 06:19:30;;;;;;;8.93;2.10;;;;;;;12.38;100.00;100944.38;5241473;28;20044;-73
2023/10/14 06:22:03;;;;;;;10.50;2.20;;;;;;;12.41;100.00;100953.81;5238443;28;20037;-73
2023/10/14 06:24:35;;;;;;;10.30;2.70;;;;;;;12.45;100.00;100949.94;5246601;28;20025;-73
2023/10/14 06:27:09;;;;;;;13.20;2.10;;;;;;;12.40;100.00;100955.59;5243256;28;20024;-72
2023/10/14 06:29:42;;;;;;;14.63;2.03;;;;;;;12.45;100.00;100962.25;5240668;28;20040;-73
2023/10/14 06:32:13;;;;;;;9.98;2.28;;;;;;;12.43;100.00;100970.28;5235743;28;20056;-73
2023/10/14 06:34:47;;;;;;;8.52;2.22;;;;;;;12.40;100.00;100974.00;5237847;28;20029;-73
2023/10/14 06:37:19;;;;;;;11.73;2.38;;;;;;;12.46;100.00;100982.28;5241188;28;20024;-72
2023/10/14 06:39:51;;;;;;;9.68;2.50;;;;;;;12.47;100.00;100983.97;5244230;28;20035;-73
2023/10/14 06:42:23;;;;;;;10.50;2.25;;;;;;;12.53;100.00;100996.53;5242267;28;20052;-73
2023/10/14 06:44:57;;;;;;;7.95;2.03;;;;;;;12.46;100.00;101000.69;5244252;28;20031;-73
2023/10/14 06:47:29;;;;;;;7.32;1.77;;;;;;;12.45;100.00;101004.28;5245923;28;20037;-73
2023/10/14 06:50:01;;;;;;;7.65;1.98;;;;;;;12.37;100.00;101005.81;5240935;28;20382;-73
2023/10/14 06:52:35;;;;;;;11.73;2.28;;;;;;;12.47;100.00;101018.94;5243853;28;20040;-72
2023/10/14 06:55:07;;;;;;;8.43;2.67;;;;;;;12.39;100.00;101017.00;5245204;28;20036;-73
2023/10/14 06:57:42;;;;;;;7.72;2.17;;;;;;;12.35;100.00;101026.13;5245749;28;20463;-72
2023/10/14 07:00:14;;;;;;;9.13;2.30;;;;;;;12.34;100.00;101028.88;5239730;28;20398;-73
2023/10/14 07:02:46;;;;;;;8.67;2.23;;;;;;;12.39;100.00;101043.28;5235403;28;20033;-73
2023/10/14 07:05:19;;;;;;;9.65;2.08;;;;;;;12.37;100.00;101047.84;5234040;28;20298;-73
2023/10/14 07:07:51;;;;;;;8.65;2.20;;;;;;;12.43;100.00;101045.66;5235030;28;20029;-73
2023/10/14 07:10:32;;;;;;;12.30;2.40;;;;;;;12.36;100.00;101048.81;5234369;28;20243;-72
2023/10/14 07:13:04;;;;;;;10.55;2.60;;;;;;;12.38;100.00;101052.13;5234821;28;20037;-73
2023/10/14 07:15:38;;;;;;;12.45;2.22;;;;;;;12.40;100.00;101063.34;5235344;28;20403;-73
2023/10/14 07:18:23;;;;;;;10.35;2.38;;;;;;;12.36;100.00;101053.25;5239889;28;20029;-73
2023/10/14 07:20:57;;;;;;;10.43;2.00;;;;;;;12.43;100.00;101066.66;5243950;28;20029;-73
2023/10/14 07:23:34;;;;;;;8.93;2.63;;;;;;;12.50;100.00;101065.97;5242831;28;20029;-73
2023/10/14 07:26:11;;;;;;;7.47;2.15;;;;;;;12.59;100.00;101077.47;5240678;28;20029;-73
2023/10/14 07:28:44;;;;;;;8.93;2.15;;;;;;;12.51;100.00;101072.06;5237685;28;20471;-72
2023/10/14 07:31:16;;;;;;;10.73;2.60;;;;;;;12.55;100.00;101083.97;5242448;28;20024;-73
2023/10/14 07:33:48;;;;;;;11.23;2.42;;;;;;;12.60;100.00;101087.00;5236416;28;20037;-73
2023/10/14 07:36:20;;;;;;;10.95;2.22;;;;;;;12.57;100.00;101088.09;5243909;28;20028;-73
2023/10/14 07:38:52;;;;;;;10.73;2.65;;;;;;;12.58;100.00;101088.94;5238281;28;20570;-73
2023/10/14 07:41:23;;;;;;;16.25;3.25;;;;;;;12.63;100.00;101098.06;5234503;28;20033;-73
2023/10/14 07:43:55;;;;;;;8.90;2.17;;;;;;;12.64;100.00;101097.09;5236009;28;20060;-73
2023/10/14 07:46:27;;;;;;;12.00;2.80;;;;;;;12.66;100.00;101105.69;5235809;28;20058;-73
2023/10/14 07:48:59;;;;;;;9.52;2.60;;;;;;;12.70;100.00;101111.50;5232994;28;20063;-73
2023/10/14 07:51:31;;;;;;;16.13;2.40;;;;;;;12.76;100.00;101110.09;5236977;28;20037;-73
2023/10/14 07:54:03;;;;;;;8.90;2.40;;;;;;;12.80;100.00;101112.31;5235945;28;20029;-74
2023/10/14 07:56:35;;;;;;;10.95;2.72;;;;;;;12.80;100.00;101114.94;5240403;28;20037;-74
2023/10/14 07:59:08;;;;;;;10.23;2.50;;;;;;;12.86;100.00;101126.72;5249377;28;20025;-74
2023/10/14 08:01:40;;;;;;;9.98;2.75;;;;;;;12.98;100.00;101127.41;5247929;28;20038;-74
2023/10/14 08:04:14;;;;;;;10.75;2.55;;;;;;;12.94;100.00;101123.41;5244762;28;20031;-74
2023/10/14 08:06:46;;;;;;;11.25;2.92;;;;;;;12.91;100.00;101130.59;5242328;28;20029;-74
2023/10/14 08:09:24;;;;;;;12.23;2.75;;;;;;;12.97;100.00;101133.66;5250310;28;20425;-74
2023/10/14 08:11:56;;;;;;;13.05;2.55;;;;;;;13.03;100.00;101141.84;5249003;28;20032;-74
2023/10/14 08:14:30;;;;;;;11.57;3.05;;;;;;;13.06;100.00;101131.00;5244342;28;20063;-74
2023/10/14 08:17:10;;;;;;;9.80;2.63;;;;;;;13.13;100.00;101142.63;5244352;28;20025;-73
2023/10/14 08:19:42;;;;;;;15.82;4.15;;;;;;;13.12;100.00;101153.31;5241850;28;20033;-74
2023/10/14 08:22:14;;;;;;;12.77;2.72;;;;;;;13.12;100.00;101143.63;5246843;28;20489;-74
2023/10/14 08:24:46;;;;;;;11.90;2.35;;;;;;;13.18;100.00;101160.63;5249354;28;20049;-74
2023/10/14 08:27:18;;;;;;;9.15;2.42;;;;;;;13.30;100.00;101158.75;5244114;28;20036;-75
2023/10/14 08:29:50;;;;;;;9.65;2.40;;;;;;;13.33;100.00;101156.66;5241407;28;20029;-74
2023/10/14 08:32:25;;;;;;;15.90;2.70;;;;;;;13.35;100.00;101172.28;5237844;28;20107;-74
2023/10/14 08:34:56;;;;;;;9.75;2.35;;;;;;;13.34;100.00;101160.94;5238594;28;20043;-74
2023/10/14 08:37:28;;;;;;;11.02;2.50;;;;;;;13.43;100.00;101166.34;5241926;28;20276;-74
2023/10/14 08:40:00;;;;;;;10.98;2.47;;;;;;;13.51;100.00;101180.44;5247238;28;20031;-74
2023/10/14 08:42:36;;;;;;;14.75;2.85;;;;;;;13.53;100.00;101181.16;5245248;28;20035;-75
2023/10/14 08:45:10;;;;;;;9.57;2.58;;;;;;;13.55;100.00;101188.88;5244073;28;20034;-75
2023/10/14 08:47:44;;;;;;;9.43;2.40;;;;;;;13.61;100.00;101197.06;5241452;28;20029;-74
2023/10/14 08:50:18;;;;;;;11.45;2.20;;;;;;;13.61;100.00;101199.69;5241150;28;20044;-74
2023/10/14 08:52:56;;;;;;;7.90;2.20;;;;;;;13.81;100.00;101211.00;5241271;28;20026;-74
2023/10/14 08:55:32;;;;;;;10.32;2.60;;;;;;;13.74;100.00;101211.72;5233711;28;20052;-74
2023/10/14 08:58:06;;;;;;;14.18;2.85;;;;;;;13.83;100.00;101200.34;5236126;28;20037;-74
2023/10/14 09:00:38;;;;;;;9.95;2.40;;;;;;;13.83;100.00;101201.19;5235896;28;20387;-74
2023/10/14 09:03:10;;;;;;;9.57;2.25;;;;;;;13.95;100.00;101215.00;5232286;28;20037;-74
2023/10/14 09:05:46;;;;;;;8.82;2.10;;;;;;;14.00;100.00;101204.03;5235476;28;20056;-74
2023/10/14 09:08:19;;;;;;;12.35;2.50;;;;;;;14.03;100.00;101214.28;5235211;28;20466;-75
2023/10/14 09:10:52;;;;;;;13.00;2.42;;;;;;;14.12;100.00;101222.16;5239820;28;20056;-74
2023/10/14 09:13:25;;;;;;;11.43;2.80;;;;;;;14.20;100.00;101226.69;5239941;28;20482;-74
2023/10/14 09:15:57;;;;;;;12.30;3.03;;;;;;;14.26;100.00;101225.31;5237199;28;20041;-74
2023/10/14 09:18:30;;;;;;;15.43;3.08;;;;;;;14.33;100.00;101231.66;5237369;28;20029;-74
2023/10/14 09:21:05;;;;;;;13.52;3.17;;;;;;;14.41;100.00;101223.03;5234527;28;20486;-74
2023/10/14 09:23:39;;;;;;;12.48;2.97;;;;;;;14.47;100.00;101225.91;5235959;28;20033;-74
2023/10/14 09:26:11;;;;;;;10.32;2.72;;;;;;;14.48;100.00;101224.94;5235385;28;20021;-74
2023/10/14 09:28:45;;;;;;;10.70;2.47;;;;;;;14.66;100.00;101230.28;5241714;28;20043;-74
2023/10/14 09:31:17;;;;;;;11.88;2.70;;;;;;;14.68;100.00;101224.84;5243002;28;20021;-74
2023/10/14 09:33:52;;;;;;;10.82;2.60;;;;;;;14.71;100.00;101233.31;5233761;28;20135;-75
2023/10/14 09:36:24;;;;;;;11.68;2.47;;;;;;;14.86;100.00;101235.44;5233270;28;20030;-74
2023/10/14 09:39:00;;;;;;;12.23;2.78;;;;;;;15.06;100.00;101231.69;5232019;28;20521;-74
2023/10/14 09:41:33;;;;;;;9.57;2.45;;;;;;;15.10;100.00;101238.31;5234593;28;20651;-74
2023/10/14 09:44:06;;;;;;;8.70;2.30;;;;;;;15.09;100.00;101232.22;5232322;28;20045;-74
2023/10/14 09:46:40;;;;;;;;;;;;;;;15.78;100.00;101238.59;5233164;28;21055;-74
2023/10/14 09:49:15;;;;;;;9.02;2.15;;;;;;;15.13;100.00;101243.31;5237078;28;19921;-74
2023/10/14 09:51:48;;;;;;;9.68;2.53;;;;;;;15.00;100.00;101242.84;5233675;28;20033;-74
2023/10/14 09:54:22;;;;;;;11.32;2.20;;;;;;;15.12;100.00;101246.13;5233517;28;20021;-74
2023/10/14 09:56:55;;;;;;;9.13;1.92;;;;;;;15.17;100.00;101249.94;5233967;28;20033;-74
2023/10/14 09:59:30;;;;;;;9.10;2.05;;;;;;;15.25;100.00;101246.56;5232429;28;20044;-74
2023/10/14 10:02:02;;;;;;;7.35;2.47;;;;;;;15.27;100.00;101253.34;5237899;28;20442;-74
2023/10/14 10:04:36;;;;;;;10.70;2.28;;;;;;;15.36;100.00;101248.97;5244341;28;20383;-74
2023/10/14 10:07:26;;;;;;;12.52;2.80;;;;;;;15.53;100.00;101257.84;5238673;28;20029;-74
2023/10/14 10:10:13;;;;;;;11.25;2.60;;;;;;;15.80;100.00;101260.44;5230549;28;20375;-74
2023/10/14 10:12:53;;;;;;;8.80;2.03;;;;;;;15.61;100.00;101247.38;5237696;28;20040;-73
2023/10/14 10:15:25;;;;;;;8.90;2.47;;;;;;;15.63;100.00;101252.50;5237392;28;20044;-73
2023/10/14 10:18:03;;;;;;;7.97;2.13;;;;;;;15.89;100.00;101271.06;5237242;28;20037;-76
2023/10/14 10:20:41;;;;;;;6.93;2.15;;;;;;;15.73;100.00;101256.75;5242059;28;20041;-74
2023/10/14 10:23:14;;;;;;;12.25;2.75;;;;;;;15.68;100.00;101264.31;5243965;28;20740;-74
2023/10/14 10:25:48;;;;;;;8.98;2.22;;;;;;;15.43;100.00;101270.31;5242752;28;20021;-75
2023/10/14 10:28:26;;;;;;;8.60;2.25;;;;;;;15.53;100.00;101279.84;5241982;28;20025;-74
2023/10/14 10:31:04;;;;;;;8.65;1.90;;;;;;;15.57;100.00;101272.44;5234588;28;20045;-75
2023/10/14 10:33:58;;;;;;;7.78;2.20;;;;;;;15.85;100.00;101278.47;5234522;28;20029;-75
2023/10/14 10:36:31;;;;;;;;;;;;;;;16.27;100.00;101278.56;5235151;28;20037;-74
2023/10/14 10:39:16;;;;;;;6.20;1.90;;;;;;;15.76;100.00;101280.22;5236756;28;19913;-75
2023/10/14 10:41:51;;;;;;;7.60;2.08;;;;;;;15.76;100.00;101274.94;5244207;28;20232;-74
2023/10/14 10:44:29;;;;;;;6.68;1.90;;;;;;;15.81;100.00;101287.69;5240308;28;20045;-74
2023/10/14 10:47:02;;;;;;;7.80;2.28;;;;;;;15.53;100.00;101292.19;5240153;28;20498;-74
2023/10/14 10:49:49;;;;;;;9.35;1.83;;;;;;;15.60;100.00;101295.06;5233547;28;20033;-75
2023/10/14 10:52:21;;;;;;;9.98;1.95;;;;;;;15.13;100.00;101298.72;5234755;28;20029;-74
2023/10/14 10:54:53;;;;;;;8.63;2.40;;;;;;;15.26;100.00;101307.09;5236154;28;20025;-74
2023/10/14 10:57:25;;;;;;;9.75;2.28;;;;;;;15.38;100.00;101309.53;5241352;28;20545;-73
2023/10/14 10:59:57;;;;;;;9.60;2.38;;;;;;;15.63;100.00;101303.50;5244617;28;20551;-74
2023/10/14 11:02:29;;;;;;;8.43;2.63;;;;;;;15.70;100.00;101301.94;5235055;28;20055;-74
2023/10/14 11:05:03;;;;;;;6.20;2.10;;;;;;;15.95;100.00;101300.34;5241086;28;20034;-74
2023/10/14 11:07:35;;;;;;;7.80;2.13;;;;;;;15.95;100.00;101295.06;5236491;28;20049;-74
2023/10/14 11:10:07;;;;;;;8.13;1.73;;;;;;;16.08;100.00;101296.47;5234541;28;20037;-74
2023/10/14 11:12:39;;;;;;;7.68;2.22;;;;;;;16.23;100.00;101305.47;5234209;28;20041;-74
2023/10/14 11:15:21;;;;;;;11.18;2.40;;;;;;;16.42;100.00;101307.06;5234298;28;20025;-77
2023/10/14 11:17:58;;;;;;;6.10;2.30;;;;;;;16.43;100.00;101306.09;5233661;28;20037;-77
2023/10/14 11:20:38;;;;;;;8.95;2.28;;;;;;;16.51;100.00;101298.19;5244196;28;20037;-77
2023/10/14 11:23:11;;;;;;;9.98;2.30;;;;;;;16.55;100.00;101291.59;5239837;28;20036;-77
2023/10/14 11:25:44;;;;;;;;;;;;;;;17.39;100.00;101298.69;5232790;28;20040;-77
2023/10/14 11:28:16;;;;;;;7.85;1.80;;;;;;;16.91;100.00;101305.50;5235048;28;19913;-77
2023/10/14 11:30:48;;;;;;;7.03;2.13;;;;;;;16.90;100.00;101308.34;5235414;28;20032;-77
2023/10/14 11:33:22;;;;;;;7.00;1.98;;;;;;;16.97;100.00;101299.59;5239129;28;20017;-78
2023/10/14 11:35:54;;;;;;;10.35;1.98;;;;;;;16.82;100.00;101290.59;5235702;28;20459;-78
2023/10/14 11:38:25;;;;;;;9.63;2.28;;;;;;;16.86;100.00;101304.31;5242137;28;20025;-78
2023/10/14 11:40:58;;;;;;;6.07;1.67;;;;;;;16.84;100.00;101307.13;5241987;28;20056;-77
2023/10/14 11:43:30;;;;;;;7.03;2.33;;;;;;;16.98;100.00;101306.53;5236442;28;20041;-78
2023/10/14 11:46:02;;;;;;;10.10;2.38;;;;;;;16.92;100.00;101308.97;5239797;28;20341;-78
2023/10/14 11:48:34;;;;;;;7.80;2.30;;;;;;;16.74;100.00;101317.00;5239776;28;20039;-78
2023/10/14 11:51:11;;;;;;;9.40;2.30;;;;;;;16.50;100.00;101315.06;5237530;28;20034;-74
2023/10/14 11:53:43;;;;;;;8.18;2.40;;;;;;;16.50;100.00;101325.63;5235826;28;20060;-74
2023/10/14 11:56:15;;;;;;;9.57;1.80;;;;;;;16.41;100.00;101329.22;5234551;28;20530;-74